Time;durP1;ratioP1;P1;durP2;ratioP2;P2;SDS_P1;SDS_P2;PMS_P1;PMS_P2;Temp;Humidity;BMP_temperature;BMP_pressure;BME280_temperature;BME280_humidity;BME280_pressure;Samples;Min_cycle;Max_cycle;Signal;HPM_P1;HPM_P2
2021/12/29 00:00:44;;;;;;;83.22;41.40;;;;;;;-1.82;100.00;98277.28;5035259;28;20050;-68
2021/12/29 00:03:28;;;;;;;84.30;41.55;;;;;;;-1.85;100.00;98273.81;5035516;28;20095;-68
2021/12/29 00:06:12;;;;;;;81.72;40.67;;;;;;;-1.83;100.00;98274.69;5035424;28;20048;-69
2021/12/29 00:08:58;;;;;;;72.18;37.28;;;;;;;-1.98;100.00;98262.69;5021088;28;20041;-68
2021/12/29 00:11:43;;;;;;;76.90;37.95;;;;;;;-1.89;100.00;98268.69;5034615;28;20121;-69
2021/12/29 00:14:27;;;;;;;80.40;39.28;;;;;;;-1.94;100.00;98269.56;5034736;28;20067;-69
2021/12/29 00:17:12;;;;;;;74.03;36.90;;;;;;;-1.97;100.00;98260.16;5034507;28;20041;-69
2021/12/29 00:19:57;;;;;;;70.00;35.30;;;;;;;-1.96;100.00;98268.69;5034503;28;20072;-68
2021/12/29 00:22:41;;;;;;;77.30;37.03;;;;;;;-2.01;100.00;98265.28;5035117;28;20038;-68
2021/12/29 00:25:26;;;;;;;87.22;41.55;;;;;;;-2.07;100.00;98265.28;5035137;28;20443;-68
2021/12/29 00:28:11;;;;;;;75.90;37.08;;;;;;;-2.03;100.00;98262.72;5035049;28;20046;-68
2021/12/29 00:30:55;;;;;;;64.70;34.05;;;;;;;-2.01;100.00;98261.00;5035318;28;20038;-68
2021/12/29 00:34:00;;;;;;;69.63;34.00;;;;;;;-1.92;100.00;98268.72;5034825;28;20045;-68
2021/12/29 00:37:03;;;;;;;;;;;;;;;-1.92;100.00;98263.59;5035295;28;20042;-68
2021/12/29 00:40:08;;;;;;;68.17;33.90;;;;;;;-1.91;100.00;98278.13;5035222;28;19921;-68
2021/12/29 00:43:11;;;;;;;59.45;31.90;;;;;;;-1.90;100.00;98268.72;5034412;28;20412;-68
2021/12/29 00:46:23;;;;;;;53.33;28.63;;;;;;;-1.82;100.00;98277.28;5034687;28;20045;-68
2021/12/29 00:49:08;;;;;;;63.65;31.42;;;;;;;-1.83;100.00;98272.97;5020004;28;20053;-68
2021/12/29 00:51:53;;;;;;;62.22;31.70;;;;;;;-1.88;100.00;98255.03;5034633;28;20060;-68
2021/12/29 00:54:40;;;;;;;63.50;31.23;;;;;;;-1.77;100.00;98278.13;5019981;28;20046;-68
2021/12/29 00:57:25;;;;;;;56.47;30.05;;;;;;;-1.76;100.00;98266.13;5034654;28;20049;-68
2021/12/29 01:00:14;;;;;;;58.85;28.67;;;;;;;-1.70;100.00;98271.28;5034566;28;20064;-68
2021/12/29 01:02:58;;;;;;;55.92;28.27;;;;;;;-1.70;100.00;98274.69;5033814;28;20067;-69
2021/12/29 01:05:43;;;;;;;50.92;27.63;;;;;;;-1.67;100.00;98279.81;5033288;28;20112;-69
2021/12/29 01:08:28;;;;;;;60.58;30.80;;;;;;;-1.70;100.00;98279.81;5033637;28;20094;-68
2021/12/29 01:11:12;;;;;;;58.40;29.77;;;;;;;-1.65;100.00;98282.41;5034605;28;20079;-68
2021/12/29 01:13:57;;;;;;;55.67;28.38;;;;;;;-1.68;100.00;98273.00;5033861;28;20427;-68
2021/12/29 01:16:41;;;;;;;67.88;36.35;;;;;;;-1.61;100.00;98278.97;5033562;28;20050;-68
2021/12/29 01:19:29;;;;;;;59.42;30.42;;;;;;;-1.62;100.00;98267.00;5034264;28;20359;-68
2021/12/29 01:22:14;;;;;;;59.20;30.17;;;;;;;-1.61;100.00;98280.69;5019673;28;20829;-68
2021/12/29 01:24:58;;;;;;;60.65;32.05;;;;;;;-1.57;100.00;98283.25;5033631;28;20048;-68
2021/12/29 01:27:43;;;;;;;91.55;45.33;;;;;;;-1.56;100.00;98284.09;5033427;28;20046;-68
2021/12/29 01:30:28;;;;;;;86.35;45.20;;;;;;;-1.58;100.00;98285.81;5033325;28;20041;-68
2021/12/29 01:33:12;;;;;;;60.90;34.20;;;;;;;-1.58;100.00;98280.69;5033346;28;20048;-69
2021/12/29 01:35:56;;;;;;;58.60;31.35;;;;;;;-1.48;100.00;98280.66;5033347;28;20038;-68
2021/12/29 01:38:41;;;;;;;56.15;30.52;;;;;;;-1.55;100.00;98273.84;5033467;28;20076;-69
2021/12/29 01:41:26;;;;;;;89.80;41.60;;;;;;;-1.48;100.00;98274.69;5033419;28;20048;-68
2021/12/29 01:44:11;;;;;;;99.97;40.88;;;;;;;-1.47;100.00;98277.22;5034235;28;20045;-69
2021/12/29 01:46:58;;;;;;;103.15;41.30;;;;;;;-1.46;100.00;98270.41;5033350;28;20048;-68
2021/12/29 01:49:44;;;;;;;81.70;34.90;;;;;;;-1.45;100.00;98267.81;5034211;28;20041;-69
2021/12/29 01:52:35;;;;;;;55.55;27.75;;;;;;;-1.43;100.00;98278.97;5033022;28;20061;-68
2021/12/29 01:55:20;;;;;;;55.55;29.88;;;;;;;-1.44;100.00;98271.25;5033616;28;20041;-69
2021/12/29 01:58:06;;;;;;;46.72;24.27;;;;;;;-1.45;100.00;98269.53;5033847;28;20056;-68
2021/12/29 02:00:52;;;;;;;54.97;26.25;;;;;;;-1.43;100.00;98278.06;5032786;28;20050;-69
2021/12/29 02:03:36;;;;;;;49.95;25.73;;;;;;;-1.43;100.00;98272.94;5032940;28;20046;-69
2021/12/29 02:06:21;;;;;;;52.58;26.83;;;;;;;-1.39;100.00;98276.38;5033651;28;20045;-68
2021/12/29 02:09:07;;;;;;;50.95;24.63;;;;;;;-1.33;100.00;98282.38;5033410;28;20417;-68
2021/12/29 02:11:52;;;;;;;49.47;26.70;;;;;;;-1.27;100.00;98284.06;5005086;28;20069;-68
2021/12/29 02:14:36;;;;;;;50.45;27.05;;;;;;;-1.28;100.00;98287.50;5033787;28;20170;-69
2021/12/29 02:17:21;;;;;;;53.90;26.33;;;;;;;-1.24;100.00;98278.91;5032998;28;20042;-68
2021/12/29 02:20:08;;;;;;;52.58;24.90;;;;;;;-1.20;100.00;98280.63;5032653;28;20355;-69
2021/12/29 02:23:11;;;;;;;47.55;23.02;;;;;;;-1.22;100.00;98284.91;5032949;28;20042;-69
2021/12/29 02:25:57;;;;;;;42.58;21.67;;;;;;;-1.20;100.00;98284.06;5033242;28;20336;-69
2021/12/29 02:28:42;;;;;;;48.10;23.77;;;;;;;-1.22;100.00;98277.19;5033090;28;20045;-69
2021/12/29 02:31:28;;;;;;;177.35;73.60;;;;;;;-1.16;100.00;98289.19;5033159;28;20042;-69
2021/12/29 02:34:14;;;;;;;89.20;44.30;;;;;;;-1.15;100.00;98283.19;5018594;28;20048;-68
2021/12/29 02:37:02;;;;;;;57.90;28.40;;;;;;;-1.15;100.00;98270.34;5032581;28;20045;-69
2021/12/29 02:39:49;;;;;;;50.05;24.38;;;;;;;-1.14;100.00;98278.03;5033041;28;20106;-69
2021/12/29 02:42:40;;;;;;;41.88;21.40;;;;;;;-1.14;100.00;98280.59;5033299;28;20041;-69
2021/12/29 02:45:26;;;;;;;37.25;19.15;;;;;;;-1.08;100.00;98279.72;5032667;28;20045;-69
2021/12/29 02:48:10;;;;;;;44.70;21.20;;;;;;;-1.09;100.00;98272.88;5032932;28;20351;-69
2021/12/29 02:50:57;;;;;;;39.83;21.30;;;;;;;-1.07;100.00;98282.31;5032501;28;20136;-69
2021/12/29 02:53:41;;;;;;;35.30;19.70;;;;;;;-1.03;100.00;98290.88;5032914;28;20045;-69
2021/12/29 02:56:27;;;;;;;48.35;22.10;;;;;;;-1.02;100.00;98288.28;5032780;28;20415;-69
2021/12/29 02:59:11;;;;;;;36.42;19.30;;;;;;;-1.03;100.00;98284.00;5018720;28;20050;-69
2021/12/29 03:01:55;;;;;;;40.88;19.17;;;;;;;-0.99;100.00;98279.72;5018193;28;20041;-69
2021/12/29 03:04:40;;;;;;;37.58;19.40;;;;;;;-0.99;100.00;98284.84;5032856;28;20045;-69
2021/12/29 03:07:25;;;;;;;38.45;19.63;;;;;;;-0.96;100.00;98283.13;5032243;28;20045;-69
2021/12/29 03:10:09;;;;;;;34.70;19.70;;;;;;;-0.97;100.00;98280.56;5032036;28;20053;-69
2021/12/29 03:12:54;;;;;;;34.42;18.98;;;;;;;-0.97;100.00;98286.56;5033001;28;20045;-69
2021/12/29 03:15:39;;;;;;;35.28;18.85;;;;;;;-0.98;100.00;98289.97;5018044;28;20084;-69
2021/12/29 03:18:23;;;;;;;30.92;16.48;;;;;;;-0.95;100.00;98286.53;5033075;28;20046;-69
2021/12/29 03:21:10;;;;;;;33.78;17.00;;;;;;;-0.93;100.00;98299.41;5032574;28;20351;-69
2021/12/29 03:23:54;;;;;;;28.40;15.13;;;;;;;-0.92;100.00;98301.09;5032023;28;20049;-69
2021/12/29 03:26:38;;;;;;;28.85;15.45;;;;;;;-0.85;100.00;98300.22;5033111;28;20045;-69
2021/12/29 03:29:23;;;;;;;31.27;16.20;;;;;;;-0.87;100.00;98299.38;5034544;28;20041;-69
2021/12/29 03:32:10;;;;;;;29.42;14.68;;;;;;;-0.89;100.00;98299.38;5035280;28;20049;-69
2021/12/29 03:34:54;;;;;;;34.55;17.38;;;;;;;-0.83;100.00;98306.22;5035976;28;20435;-69
2021/12/29 03:37:38;;;;;;;43.15;21.90;;;;;;;-0.81;100.00;98307.94;5035148;28;20386;-69
2021/12/29 03:40:24;;;;;;;38.63;21.73;;;;;;;-0.80;100.00;98306.22;5035148;28;20406;-69
2021/12/29 03:43:10;;;;;;;23.20;14.00;;;;;;;-0.78;100.00;98307.94;5036079;28;20435;-69
2021/12/29 03:45:55;;;;;;;22.63;12.68;;;;;;;-0.75;100.00;98314.75;5034996;28;20046;-69
2021/12/29 03:48:41;;;;;;;21.65;12.80;;;;;;;-0.76;100.00;98318.19;5020903;28;20053;-69
2021/12/29 03:51:25;;;;;;;17.25;11.38;;;;;;;-0.72;100.00;98314.75;5034978;28;20434;-69
2021/12/29 03:54:10;;;;;;;18.08;11.25;;;;;;;-0.76;100.00;98323.34;5035511;28;20041;-69
2021/12/29 03:56:54;;;;;;;15.23;10.20;;;;;;;-0.76;100.00;98329.31;5035570;28;20051;-69
2021/12/29 03:59:39;;;;;;;15.40;9.77;;;;;;;-0.66;100.00;98335.28;5035474;28;20054;-69
2021/12/29 04:02:23;;;;;;;13.30;8.35;;;;;;;-0.73;100.00;98334.47;5034806;28;20046;-69
2021/12/29 04:05:09;;;;;;;12.93;8.25;;;;;;;-0.67;100.00;98335.31;5034941;28;20038;-69
2021/12/29 04:07:54;;;;;;;14.40;8.38;;;;;;;-0.71;100.00;98339.63;5020843;28;20041;-69
2021/12/29 04:10:40;;;;;;;17.58;9.15;;;;;;;-0.67;100.00;98343.88;5035507;28;20057;-69
2021/12/29 04:13:24;;;;;;;15.40;9.52;;;;;;;-0.64;100.00;98341.31;5035745;28;20042;-69
2021/12/29 04:16:16;;;;;;;16.27;9.30;;;;;;;-0.58;100.00;98350.72;5035174;28;20355;-69
2021/12/29 04:19:14;;;;;;;53.55;19.75;;;;;;;-0.65;100.00;98361.88;5035000;28;20053;-69
2021/12/29 04:21:59;;;;;;;69.72;25.92;;;;;;;-0.65;100.00;98356.72;5035489;28;20045;-69
2021/12/29 04:24:43;;;;;;;34.63;15.88;;;;;;;-0.63;100.00;98361.00;5034768;28;20416;-69
2021/12/29 04:27:28;;;;;;;21.90;12.15;;;;;;;-0.56;100.00;98360.13;5034386;28;20443;-69
2021/12/29 04:30:12;;;;;;;17.13;9.02;;;;;;;-0.58;100.00;98354.16;5035080;28;20052;-69
2021/12/29 04:32:57;;;;;;;12.85;8.05;;;;;;;-0.55;100.00;98364.41;5034984;28;20048;-69
2021/12/29 04:35:41;;;;;;;14.77;8.93;;;;;;;-0.50;100.00;98364.38;5034975;28;20042;-69
2021/12/29 04:38:26;;;;;;;12.93;7.65;;;;;;;-0.60;100.00;98355.00;5020390;28;20359;-69
2021/12/29 04:41:11;;;;;;;15.05;8.60;;;;;;;-0.53;100.00;98356.69;5034996;28;20116;-70
2021/12/29 04:43:55;;;;;;;31.45;17.13;;;;;;;-0.50;100.00;98360.09;5034109;28;20045;-70
2021/12/29 04:46:44;;;;;;;57.03;27.13;;;;;;;-0.52;100.00;98358.38;5035061;28;20120;-70
2021/12/29 04:49:39;;;;;;;76.57;35.83;;;;;;;-0.54;100.00;98354.97;5034695;28;20041;-70
2021/12/29 04:52:24;;;;;;;63.00;33.20;;;;;;;-0.61;100.00;98364.44;5034003;28;20125;-70
2021/12/29 04:55:09;;;;;;;59.78;32.53;;;;;;;-0.57;100.00;98358.41;5034020;28;20398;-70
2021/12/29 04:57:54;;;;;;;51.75;28.27;;;;;;;-0.52;100.00;98358.38;5020133;28;20099;-69
2021/12/29 05:00:39;;;;;;;44.20;26.25;;;;;;;-0.68;100.00;98349.91;5033804;28;20064;-70
2021/12/29 05:03:24;;;;;;;111.80;59.20;;;;;;;-0.54;100.00;98367.84;5034687;28;20147;-70
2021/12/29 05:08:54;;;;;;;179.82;99.07;;;;;;;-0.57;100.00;98376.41;5034541;28;20046;-70
2021/12/29 05:11:39;;;;;;;171.25;78.03;;;;;;;-0.49;100.00;98376.38;5034397;28;20053;-70
2021/12/29 05:14:23;;;;;;;162.48;68.10;;;;;;;-0.52;100.00;98379.84;5033854;28;20427;-70
2021/12/29 05:17:07;;;;;;;228.90;92.65;;;;;;;-0.47;100.00;98393.53;5034112;28;20045;-69
2021/12/29 05:19:52;;;;;;;190.65;78.35;;;;;;;-0.49;100.00;98390.13;5033672;28;20045;-70
2021/12/29 05:22:37;;;;;;;172.98;67.05;;;;;;;-0.38;100.00;98391.81;5034553;28;20046;-70
2021/12/29 05:25:21;;;;;;;169.30;59.67;;;;;;;-0.42;100.00;98390.97;5034170;28;20033;-70
2021/12/29 05:28:06;;;;;;;162.80;54.78;;;;;;;-0.43;100.00;98388.38;5034036;28;20045;-70
2021/12/29 05:30:52;;;;;;;140.38;49.90;;;;;;;-0.44;100.00;98389.25;5034191;28;20045;-70
2021/12/29 05:33:36;;;;;;;123.72;45.97;;;;;;;-0.40;100.00;98396.94;5034290;28;20045;-70
2021/12/29 05:36:21;;;;;;;101.65;44.00;;;;;;;-0.45;100.00;98390.97;5034072;28;20049;-70
2021/12/29 05:39:05;;;;;;;142.60;52.83;;;;;;;-0.46;100.00;98394.38;5034336;28;20102;-70
2021/12/29 05:41:51;;;;;;;124.32;42.53;;;;;;;-0.49;100.00;98403.00;5034165;28;20443;-70
2021/12/29 05:44:36;;;;;;;115.22;39.60;;;;;;;-0.44;100.00;98394.41;5033848;28;20351;-70
2021/12/29 05:47:20;;;;;;;118.30;39.90;;;;;;;-0.41;100.00;98402.94;5033896;28;20042;-70
2021/12/29 05:50:07;;;;;;;111.80;39.35;;;;;;;-0.45;100.00;98398.69;5034038;28;20042;-70
2021/12/29 05:52:54;;;;;;;122.22;40.17;;;;;;;-0.53;100.00;98411.56;5032493;28;20037;-69
2021/12/29 05:55:41;;;;;;;144.82;49.70;;;;;;;-0.52;100.00;98415.84;5033017;28;20354;-70
2021/12/29 05:58:25;;;;;;;115.35;44.88;;;;;;;-0.51;100.00;98411.56;5033782;28;20056;-70
2021/12/29 06:01:10;;;;;;;86.10;35.00;;;;;;;-0.50;100.00;98419.25;5033472;28;20053;-70
2021/12/29 06:03:55;;;;;;;66.40;31.77;;;;;;;-0.48;100.00;98420.13;5033619;28;20391;-70
2021/12/29 06:06:40;;;;;;;54.95;25.65;;;;;;;-0.45;100.00;98418.41;5032857;28;20424;-70
2021/12/29 06:09:24;;;;;;;62.95;31.05;;;;;;;-0.41;100.00;98417.53;5032810;28;20113;-70
2021/12/29 06:12:09;;;;;;;91.03;39.20;;;;;;;-0.45;100.00;98421.00;5033235;28;20049;-70
2021/12/29 06:14:54;;;;;;;97.63;43.33;;;;;;;-0.45;100.00;98429.56;5032626;28;20042;-70
2021/12/29 06:17:39;;;;;;;77.07;37.42;;;;;;;-0.41;100.00;98427.81;5031467;28;20057;-70
2021/12/29 06:20:24;;;;;;;73.88;34.22;;;;;;;-0.44;100.00;98432.97;5031554;28;20090;-70
2021/12/29 06:23:12;;;;;;;92.50;42.67;;;;;;;-0.42;100.00;98431.25;5031420;28;20427;-70
2021/12/29 06:25:56;;;;;;;112.18;48.40;;;;;;;-0.40;100.00;98432.97;5030705;28;20048;-70
2021/12/29 06:28:41;;;;;;;116.60;52.50;;;;;;;-0.37;100.00;98443.25;5031522;28;20045;-70
2021/12/29 06:31:26;;;;;;;123.57;57.38;;;;;;;-0.33;100.00;98441.50;5030713;28;20042;-69
2021/12/29 06:34:11;;;;;;;115.63;50.83;;;;;;;-0.30;100.00;98451.78;5031308;28;20087;-70
2021/12/29 06:36:57;;;;;;;118.00;56.03;;;;;;;-0.37;100.00;98444.97;5030590;28;20045;-70
2021/12/29 06:39:44;;;;;;;114.82;54.40;;;;;;;-0.35;100.00;98451.81;5031304;28;20052;-70
2021/12/29 06:42:28;;;;;;;111.80;51.67;;;;;;;-0.34;100.00;98452.69;5030510;28;20041;-69
2021/12/29 06:45:13;;;;;;;132.55;57.22;;;;;;;-0.33;100.00;98457.81;5016644;28;20053;-70
2021/12/29 06:47:57;;;;;;;156.82;64.13;;;;;;;-0.29;100.00;98461.25;5031011;28;20041;-70
2021/12/29 06:50:42;;;;;;;187.80;65.95;;;;;;;-0.32;100.00;98468.97;5032338;28;20052;-70
2021/12/29 06:53:29;;;;;;;156.30;57.50;;;;;;;-0.35;100.00;98459.53;5032338;28;20041;-70
2021/12/29 06:56:13;;;;;;;108.22;41.40;;;;;;;-0.27;100.00;98457.78;5033095;28;20044;-70
2021/12/29 06:58:57;;;;;;;82.38;35.58;;;;;;;-0.15;100.00;98469.78;5032868;28;20482;-70
2021/12/29 07:01:42;;;;;;;71.97;29.75;;;;;;;-0.14;100.00;98475.78;5018410;28;20041;-70
2021/12/29 07:04:27;;;;;;;76.05;29.83;;;;;;;-0.22;100.00;98475.81;5036480;28;20041;-70
2021/12/29 07:07:11;;;;;;;54.38;23.25;;;;;;;-0.14;100.00;98484.34;5035827;28;20048;-70
2021/12/29 07:09:55;;;;;;;44.80;23.08;;;;;;;-0.15;100.00;98484.38;5036460;28;20129;-70
2021/12/29 07:12:40;;;;;;;36.15;20.75;;;;;;;-0.14;100.00;98492.06;5035899;28;20050;-70
2021/12/29 07:15:24;;;;;;;43.53;21.85;;;;;;;-0.11;100.00;98486.91;5036524;28;20065;-70
2021/12/29 07:18:09;;;;;;;66.22;26.10;;;;;;;-0.03;100.00;98500.63;5035493;28;20037;-70
2021/12/29 07:20:53;;;;;;;80.50;34.75;;;;;;;-0.07;100.00;98506.63;5036257;28;20042;-70
2021/12/29 07:23:38;;;;;;;83.00;35.85;;;;;;;-0.03;100.00;98504.94;5036216;28;20064;-70
2021/12/29 07:26:23;;;;;;;114.80;41.45;;;;;;;0.06;100.00;98517.75;5035487;28;20175;-71
2021/12/29 07:29:08;;;;;;;143.30;48.75;;;;;;;0.08;100.00;98515.19;5036006;28;20041;-71
2021/12/29 07:31:53;;;;;;;157.40;52.08;;;;;;;0.12;100.00;98527.16;5035944;28;20145;-72
2021/12/29 07:34:37;;;;;;;172.75;58.83;;;;;;;0.09;100.00;98515.16;5035062;28;20037;-71
2021/12/29 07:37:21;;;;;;;169.40;59.35;;;;;;;0.10;100.00;98526.31;5035976;28;20120;-71
2021/12/29 07:40:08;;;;;;;204.25;78.22;;;;;;;0.18;100.00;98532.31;5035967;28;20053;-71
2021/12/29 07:42:53;;;;;;;178.27;77.78;;;;;;;0.14;100.00;98530.59;5035690;28;20126;-71
2021/12/29 07:45:41;;;;;;;175.65;76.32;;;;;;;0.25;100.00;98535.72;5034905;28;20042;-71
2021/12/29 07:48:29;;;;;;;187.50;76.13;;;;;;;0.19;100.00;98550.31;5020962;28;20037;-71
2021/12/29 07:51:15;;;;;;;185.15;72.60;;;;;;;0.20;100.00;98543.47;5034953;28;20458;-71
2021/12/29 07:54:00;;;;;;;182.93;71.70;;;;;;;0.19;100.00;98545.16;5035581;28;20126;-71
2021/12/29 07:56:45;;;;;;;157.82;65.85;;;;;;;0.18;100.00;98547.75;5034514;28;20037;-71
2021/12/29 07:59:29;;;;;;;134.23;61.00;;;;;;;0.26;100.00;98560.59;5035020;28;20064;-71
2021/12/29 08:02:17;;;;;;;119.57;52.38;;;;;;;0.27;100.00;98562.31;5034865;28;20042;-71
2021/12/29 08:05:05;;;;;;;103.05;47.90;;;;;;;0.15;100.00;98565.78;5034657;28;20042;-71
2021/12/29 08:07:50;;;;;;;82.75;36.33;;;;;;;0.21;100.00;98573.50;5034968;28;20116;-71
2021/12/29 08:10:35;;;;;;;53.70;27.17;;;;;;;0.26;100.00;98570.91;5034423;28;20045;-71
2021/12/29 08:13:20;;;;;;;34.17;19.67;;;;;;;0.24;100.00;98578.63;5034885;28;20038;-71
2021/12/29 08:16:05;;;;;;;26.52;16.27;;;;;;;0.24;100.00;98578.63;5033611;28;20042;-71
2021/12/29 08:18:50;;;;;;;26.83;16.05;;;;;;;0.37;100.00;98575.16;5033777;28;20046;-71
2021/12/29 08:21:34;;;;;;;25.65;16.50;;;;;;;0.40;100.00;98576.88;5034587;28;20061;-71
2021/12/29 08:24:19;;;;;;;42.55;22.65;;;;;;;0.37;100.00;98575.16;5035124;28;20041;-71
2021/12/29 08:27:04;;;;;;;51.50;28.10;;;;;;;0.39;100.00;98581.19;5035343;28;20098;-71
2021/12/29 08:29:49;;;;;;;63.55;31.55;;;;;;;0.40;100.00;98582.88;5034655;28;20045;-71
2021/12/29 08:32:33;;;;;;;76.95;36.80;;;;;;;0.49;100.00;98592.31;5034024;28;20389;-71
2021/12/29 08:35:18;;;;;;;75.43;35.55;;;;;;;0.52;100.00;98592.28;5020082;28;20037;-71
2021/12/29 08:38:02;;;;;;;84.93;36.60;;;;;;;0.62;100.00;98593.09;5034190;28;20037;-71
2021/12/29 08:40:47;;;;;;;76.50;34.60;;;;;;;0.69;100.00;98605.09;5034408;28;20038;-71
2021/12/29 08:43:32;;;;;;;83.63;37.67;;;;;;;0.61;100.00;98597.38;5033892;28;20435;-71
2021/12/29 08:46:17;;;;;;;204.27;90.55;;;;;;;0.79;100.00;98599.03;5033786;28;20049;-71
2021/12/29 08:49:02;;;;;;;193.63;98.20;;;;;;;0.87;100.00;98597.25;5034161;28;20053;-71
2021/12/29 08:51:47;;;;;;;124.00;68.53;;;;;;;0.88;100.00;98606.72;5034426;28;20496;-71
2021/12/29 08:54:31;;;;;;;83.95;45.10;;;;;;;0.92;100.00;98611.00;5033672;28;20057;-71
2021/12/29 08:57:16;;;;;;;74.07;37.65;;;;;;;0.89;100.00;98607.56;5033554;28;20486;-71
2021/12/29 09:00:01;;;;;;;64.43;32.45;;;;;;;0.90;100.00;98615.28;5034111;28;20053;-71
2021/12/29 09:02:45;;;;;;;68.75;35.10;;;;;;;0.95;100.00;98614.44;5034248;28;20049;-71
2021/12/29 09:05:30;;;;;;;76.68;36.92;;;;;;;0.93;100.00;98615.28;5033998;28;20047;-71
2021/12/29 09:08:14;;;;;;;74.97;37.20;;;;;;;0.99;100.00;98623.84;5033923;28;20479;-71
2021/12/29 09:10:59;;;;;;;145.68;69.25;;;;;;;1.04;100.00;98622.09;5033422;28;20090;-71
2021/12/29 09:13:44;;;;;;;162.18;78.45;;;;;;;1.17;100.00;98626.34;5033291;28;20037;-71
2021/12/29 09:16:28;;;;;;;119.13;70.28;;;;;;;1.24;100.00;98632.31;5034013;28;20053;-71
2021/12/29 09:19:14;;;;;;;138.23;83.25;;;;;;;1.22;100.00;98634.88;5033806;28;20053;-71
2021/12/29 09:21:58;;;;;;;119.43;75.82;;;;;;;1.29;100.00;98626.22;5034039;28;20038;-71
2021/12/29 09:24:45;;;;;;;117.43;74.40;;;;;;;1.24;100.00;98628.00;5034421;28;20168;-71
2021/12/29 09:27:30;;;;;;;126.40;73.95;;;;;;;1.17;100.00;98628.91;5031782;28;20440;-71
2021/12/29 09:30:14;;;;;;;95.43;62.22;;;;;;;1.07;100.00;98632.38;5033010;28;20499;-71
2021/12/29 09:32:59;;;;;;;76.70;46.13;;;;;;;1.32;100.00;98639.13;5033949;28;20424;-71
2021/12/29 09:35:47;;;;;;;64.95;36.50;;;;;;;1.24;100.00;98640.06;5033510;28;20411;-71
2021/12/29 09:38:35;;;;;;;70.95;34.53;;;;;;;1.49;100.00;98645.88;5018877;28;20037;-70
2021/12/29 09:41:20;;;;;;;73.35;34.38;;;;;;;1.57;100.00;98633.81;5031791;28;20041;-71
2021/12/29 09:44:09;;;;;;;87.88;40.08;;;;;;;1.49;100.00;98638.16;5018932;28;20061;-71
2021/12/29 09:46:54;;;;;;;75.15;36.50;;;;;;;1.59;100.00;98632.94;5032758;28;20048;-71
2021/12/29 09:49:39;;;;;;;70.88;38.03;;;;;;;1.62;100.00;98626.84;5030932;28;20037;-71
2021/12/29 09:52:29;;;;;;;85.70;43.17;;;;;;;1.53;100.00;98638.13;5031606;28;20090;-72
2021/12/29 09:55:17;;;;;;;97.68;47.08;;;;;;;1.59;100.00;98630.34;5030793;28;20445;-71
2021/12/29 09:58:03;;;;;;;157.57;68.93;;;;;;;1.56;100.00;98635.53;5016930;28;20077;-71
2021/12/29 10:00:51;;;;;;;174.68;75.70;;;;;;;1.51;100.00;98639.84;5031350;28;20046;-71
2021/12/29 10:03:37;;;;;;;143.77;73.53;;;;;;;1.47;100.00;98638.16;5031606;28;20439;-71
2021/12/29 10:06:22;;;;;;;135.25;62.25;;;;;;;1.60;100.00;98636.34;5017765;28;20037;-71
2021/12/29 10:09:16;;;;;;;157.82;78.22;;;;;;;1.60;100.00;98634.63;5032663;28;20385;-70
2021/12/29 10:12:07;;;;;;;129.27;70.90;;;;;;;1.59;100.00;98642.38;5031909;28;20063;-70
2021/12/29 10:14:56;;;;;;;89.63;49.30;;;;;;;1.58;100.00;98638.09;5032641;28;20110;-70
2021/12/29 10:17:41;;;;;;;76.00;39.15;;;;;;;1.51;100.00;98646.75;5033628;28;20041;-70
2021/12/29 10:20:26;;;;;;;68.40;35.35;;;;;;;1.40;100.00;98647.69;5018465;28;20328;-70
2021/12/29 10:23:19;;;;;;;71.22;35.78;;;;;;;1.53;100.00;98652.75;5032752;28;20120;-70
2021/12/29 10:26:16;;;;;;;65.30;33.40;;;;;;;1.57;100.00;98651.88;5032256;28;20109;-70
2021/12/29 10:29:05;;;;;;;58.17;32.33;;;;;;;1.72;100.00;98649.16;5018639;28;20045;-71
2021/12/29 10:31:58;;;;;;;54.13;30.58;;;;;;;1.57;100.00;98644.97;5032775;28;20063;-70
2021/12/29 10:34:50;;;;;;;48.97;26.35;;;;;;;1.51;100.00;98637.28;5032160;28;20379;-70
2021/12/29 10:37:35;;;;;;;71.57;31.73;;;;;;;1.63;100.00;98646.66;5032284;28;20041;-70
2021/12/29 10:40:31;;;;;;;86.97;43.22;;;;;;;1.66;100.00;98650.91;5032820;28;20332;-70
2021/12/29 10:43:17;;;;;;;58.10;31.27;;;;;;;1.74;100.00;98651.72;5032726;28;20045;-70
2021/12/29 10:46:01;;;;;;;65.68;34.22;;;;;;;1.83;100.00;98652.50;5033187;28;20042;-70
2021/12/29 10:48:49;;;;;;;64.85;32.75;;;;;;;1.83;100.00;98652.50;5018270;28;20046;-70
2021/12/29 10:51:36;;;;;;;196.50;97.35;;;;;;;1.87;100.00;98641.28;5032107;28;20038;-70
2021/12/29 10:54:24;;;;;;;118.13;67.28;;;;;;;2.19;100.00;98641.88;5032714;28;20054;-70
2021/12/29 10:57:12;;;;;;;73.30;39.53;;;;;;;2.25;100.00;98631.47;5032836;28;20037;-70
2021/12/29 11:00:02;;;;;;;59.25;32.60;;;;;;;2.31;100.00;98639.16;5090240;28;20068;-71
2021/12/29 11:02:47;;;;;;;56.33;29.67;;;;;;;2.50;100.00;98653.59;5032778;28;20044;-70
2021/12/29 11:05:37;;;;;;;49.88;27.75;;;;;;;2.45;100.00;98646.78;5032952;28;20038;-71
2021/12/29 11:08:21;;;;;;;45.05;24.70;;;;;;;2.70;100.00;98660.28;5017807;28;20053;-70
2021/12/29 11:11:07;;;;;;;56.70;27.85;;;;;;;2.33;100.00;98651.19;5032190;28;20045;-71
2021/12/29 11:13:56;;;;;;;108.85;49.97;;;;;;;2.49;100.00;98663.94;5031882;28;20416;-70
2021/12/29 11:16:42;;;;;;;114.72;55.80;;;;;;;2.86;100.00;98664.41;5032340;28;20049;-70
2021/12/29 11:19:27;;;;;;;78.72;42.10;;;;;;;2.51;100.00;98659.63;5032849;28;20076;-71
2021/12/29 11:22:16;;;;;;;64.47;36.47;;;;;;;2.78;100.00;98661.03;5032397;28;20428;-72
2021/12/29 11:25:03;;;;;;;52.92;28.25;;;;;;;3.19;100.00;98659.66;5031802;28;20049;-71
2021/12/29 11:27:48;;;;;;;55.90;31.00;;;;;;;3.61;100.00;98659.94;5031474;28;20106;-71
2021/12/29 11:30:34;;;;;;;50.92;29.58;;;;;;;3.56;100.00;98659.13;5031900;28;20044;-71
2021/12/29 11:33:19;;;;;;;41.58;25.88;;;;;;;3.58;100.00;98655.66;5032119;28;20042;-71
2021/12/29 11:36:05;;;;;;;41.20;24.23;;;;;;;3.85;100.00;98651.75;5018047;28;20037;-71
2021/12/29 11:38:50;;;;;;;50.53;25.08;;;;;;;4.11;100.00;98648.72;5031773;28;20050;-71
2021/12/29 11:41:35;;;;;;;33.47;20.55;;;;;;;3.91;100.00;98651.66;5031384;28;20042;-75
2021/12/29 11:44:19;;;;;;;38.17;18.80;;;;;;;3.91;100.00;98656.00;5017326;28;20041;-78
2021/12/29 11:47:05;;;;;;;22.95;13.50;;;;;;;3.54;100.00;98663.47;5031989;28;20052;-78
2021/12/29 11:49:50;;;;;;;24.48;13.68;;;;;;;3.55;100.00;98657.44;5032878;28;20091;-78
2021/12/29 11:52:59;;;;;;;21.05;12.88;;;;;;;3.38;100.00;98683.53;5035148;28;20117;-78
2021/12/29 11:55:53;;;;;;;24.40;12.52;;;;;;;3.28;100.00;98681.09;5035297;28;20045;-78
2021/12/29 11:58:41;;;;;;;38.75;18.38;;;;;;;3.27;100.00;98683.69;5020623;28;20049;-78
2021/12/29 12:01:27;;;;;;;35.65;17.83;;;;;;;3.33;100.00;98688.78;5034286;28;20126;-78
2021/12/29 12:04:11;;;;;;;29.13;16.52;;;;;;;3.14;100.00;98670.06;5034783;28;20053;-76
2021/12/29 12:07:08;;;;;;;25.92;14.52;;;;;;;3.33;100.00;98690.53;5034386;28;20431;-75
2021/12/29 12:09:52;;;;;;;40.08;19.83;;;;;;;3.16;100.00;98683.84;5020670;28;20042;-75
2021/12/29 12:12:47;;;;;;;43.45;22.60;;;;;;;2.94;100.00;98692.75;5034316;28;20511;-72
2021/12/29 12:15:37;;;;;;;47.17;24.92;;;;;;;2.79;100.00;98691.19;5035119;28;20045;-71
2021/12/29 12:18:22;;;;;;;48.58;24.35;;;;;;;2.75;100.00;98697.28;5034503;28;20443;-71
2021/12/29 12:21:06;;;;;;;47.63;22.08;;;;;;;2.65;100.00;98693.09;5034231;28;20057;-72
2021/12/29 12:23:53;;;;;;;39.88;21.85;;;;;;;2.70;100.00;98706.84;5034650;28;20056;-71
2021/12/29 12:26:59;;;;;;;44.05;23.08;;;;;;;2.65;100.00;98700.84;5034467;28;20060;-72
2021/12/29 12:29:45;;;;;;;55.85;37.00;;;;;;;2.53;100.00;98701.81;5020026;28;20052;-72
2021/12/29 12:32:44;;;;;;;44.85;29.15;;;;;;;2.55;100.00;98702.66;5034752;28;20045;-72
2021/12/29 12:35:38;;;;;;;30.10;19.90;;;;;;;2.55;100.00;98713.00;5034508;28;20048;-72
2021/12/29 12:38:29;;;;;;;27.50;15.85;;;;;;;2.35;100.00;98715.78;5034214;28;20061;-71
2021/12/29 12:41:18;;;;;;;24.40;14.27;;;;;;;2.23;100.00;98718.47;5034094;28;20075;-72